sensor_id;sensor_type;location;lat;lon;timestamp;pressure;altitude;pressure_sealevel;temperature;humidity
69784;BME280;57054;51.978;4.498;2023-07-30T00:01:30;100888.03;;;17.17;89.01
69784;BME280;57054;51.978;4.498;2023-07-30T00:03:55;100893.31;;;17.17;89.17
69784;BME280;57054;51.978;4.498;2023-07-30T00:06:20;100890.66;;;17.17;89.48
69784;BME280;57054;51.978;4.498;2023-07-30T00:09:41;100889.91;;;17.15;89.46
69784;BME280;57054;51.978;4.498;2023-07-30T00:12:07;100893.41;;;17.16;89.48
69784;BME280;57054;51.978;4.498;2023-07-30T00:14:33;100896.06;;;17.16;89.59
69784;BME280;57054;51.978;4.498;2023-07-30T00:16:58;100889.06;;;17.15;89.65
69784;BME280;57054;51.978;4.498;2023-07-30T00:19:24;100885.56;;;17.14;89.71
69784;BME280;57054;51.978;4.498;2023-07-30T00:21:49;100888.22;;;17.14;89.81
69784;BME280;57054;51.978;4.498;2023-07-30T00:24:14;100895.31;;;17.14;89.72
69784;BME280;57054;51.978;4.498;2023-07-30T00:26:40;100895.31;;;17.14;89.96
69784;BME280;57054;51.978;4.498;2023-07-30T00:29:06;100890.97;;;17.13;90.10
69784;BME280;57054;51.978;4.498;2023-07-30T00:31:31;100901.53;;;17.13;90.04
69784;BME280;57054;51.978;4.498;2023-07-30T00:33:56;100898.91;;;17.13;90.30
69784;BME280;57054;51.978;4.498;2023-07-30T00:36:22;100898.06;;;17.12;90.38
69784;BME280;57054;51.978;4.498;2023-07-30T00:38:47;100902.47;;;17.12;90.60
69784;BME280;57054;51.978;4.498;2023-07-30T00:41:13;100906.84;;;17.13;90.52
69784;BME280;57054;51.978;4.498;2023-07-30T00:43:38;100908.66;;;17.12;90.71
69784;BME280;57054;51.978;4.498;2023-07-30T00:46:03;100908.66;;;17.12;90.80
69784;BME280;57054;51.978;4.498;2023-07-30T00:48:29;100913.06;;;17.12;90.76
69784;BME280;57054;51.978;4.498;2023-07-30T00:50:55;100913.06;;;17.12;90.79
69784;BME280;57054;51.978;4.498;2023-07-30T00:53:23;100921.00;;;17.12;91.47
69784;BME280;57054;51.978;4.498;2023-07-30T00:55:49;100923.56;;;17.13;91.80
69784;BME280;57054;51.978;4.498;2023-07-30T00:58:15;100921.78;;;17.14;91.79
69784;BME280;57054;51.978;4.498;2023-07-30T01:06:33;100912.97;;;17.13;92.51
69784;BME280;57054;51.978;4.498;2023-07-30T01:08:58;100926.09;;;17.15;92.65
69784;BME280;57054;51.978;4.498;2023-07-30T01:11:24;100921.78;;;17.14;92.45
69784;BME280;57054;51.978;4.498;2023-07-30T01:13:49;100918.16;;;17.15;92.72
69784;BME280;57054;51.978;4.498;2023-07-30T01:16:15;100918.16;;;17.15;92.69
69784;BME280;57054;51.978;4.498;2023-07-30T01:18:40;100924.19;;;17.17;92.88
69784;BME280;57054;51.978;4.498;2023-07-30T01:21:06;100924.19;;;17.17;93.09
69784;BME280;57054;51.978;4.498;2023-07-30T01:23:31;100923.25;;;17.18;92.78
69784;BME280;57054;51.978;4.498;2023-07-30T01:26:04;100924.09;;;17.18;92.81
69784;BME280;57054;51.978;4.498;2023-07-30T01:28:37;100922.28;;;17.19;92.77
69784;BME280;57054;51.978;4.498;2023-07-30T01:31:04;100914.34;;;17.19;92.81
69784;BME280;57054;51.978;4.498;2023-07-30T01:33:30;100914.34;;;17.19;92.87
69784;BME280;57054;51.978;4.498;2023-07-30T01:35:58;100917.88;;;17.19;92.75
69784;BME280;57054;51.978;4.498;2023-07-30T01:38:25;100922.19;;;17.20;93.09
69784;BME280;57054;51.978;4.498;2023-07-30T01:40:51;100920.50;;;17.19;93.13
69784;BME280;57054;51.978;4.498;2023-07-30T01:43:16;100932.78;;;17.20;93.03
69784;BME280;57054;51.978;4.498;2023-07-30T01:45:42;100924.00;;;17.20;93.10
69784;BME280;57054;51.978;4.498;2023-07-30T01:48:07;100921.25;;;17.21;93.38
69784;BME280;57054;51.978;4.498;2023-07-30T01:50:33;100923.06;;;17.21;93.30
69784;BME280;57054;51.978;4.498;2023-07-30T01:52:58;100932.78;;;17.20;93.46
69784;BME280;57054;51.978;4.498;2023-07-30T01:55:24;100930.13;;;17.20;93.67
69784;BME280;57054;51.978;4.498;2023-07-30T01:57:49;100934.50;;;17.21;93.70
69784;BME280;57054;51.978;4.498;2023-07-30T02:00:14;100936.31;;;17.21;93.67
69784;BME280;57054;51.978;4.498;2023-07-30T02:02:40;100934.50;;;17.21;93.90
69784;BME280;57054;51.978;4.498;2023-07-30T02:05:05;100936.31;;;17.21;93.77
69784;BME280;57054;51.978;4.498;2023-07-30T02:07:31;100939.78;;;17.21;93.47
69784;BME280;57054;51.978;4.498;2023-07-30T02:09:56;100935.31;;;17.22;93.75
69784;BME280;57054;51.978;4.498;2023-07-30T02:12:22;100936.16;;;17.22;93.90
69784;BME280;57054;51.978;4.498;2023-07-30T02:14:47;100929.94;;;17.23;93.83
69784;BME280;57054;51.978;4.498;2023-07-30T02:17:12;100925.59;;;17.22;93.86
69784;BME280;57054;51.978;4.498;2023-07-30T02:19:38;100929.94;;;17.23;94.09
69784;BME280;57054;51.978;4.498;2023-07-30T02:22:03;100930.88;;;17.22;94.14
69784;BME280;57054;51.978;4.498;2023-07-30T02:24:29;100914.06;;;17.23;94.14
69784;BME280;57054;51.978;4.498;2023-07-30T02:26:54;100922.00;;;17.23;94.14
69784;BME280;57054;51.978;4.498;2023-07-30T02:29:20;100919.34;;;17.23;94.42
69784;BME280;57054;51.978;4.498;2023-07-30T02:31:45;100908.75;;;17.23;94.34
69784;BME280;57054;51.978;4.498;2023-07-30T02:34:11;100913.09;;;17.24;94.46
69784;BME280;57054;51.978;4.498;2023-07-30T02:36:36;100915.72;;;17.24;94.33
69784;BME280;57054;51.978;4.498;2023-07-30T02:39:02;100913.09;;;17.24;94.55
69784;BME280;57054;51.978;4.498;2023-07-30T02:41:27;100918.38;;;17.24;94.78
69784;BME280;57054;51.978;4.498;2023-07-30T02:43:53;100914.91;;;17.24;94.60
69784;BME280;57054;51.978;4.498;2023-07-30T02:46:18;100912.25;;;17.24;94.45
69784;BME280;57054;51.978;4.498;2023-07-30T02:48:43;100913.09;;;17.24;94.43
69784;BME280;57054;51.978;4.498;2023-07-30T02:51:09;100911.31;;;17.25;94.57
69784;BME280;57054;51.978;4.498;2023-07-30T02:53:34;100903.47;;;17.23;94.57
69784;BME280;57054;51.978;4.498;2023-07-30T02:55:59;100908.75;;;17.23;94.70
69784;BME280;57054;51.978;4.498;2023-07-30T02:58:25;100912.25;;;17.24;94.68
69784;BME280;57054;51.978;4.498;2023-07-30T03:00:50;100900.81;;;17.23;94.67
69784;BME280;57054;51.978;4.498;2023-07-30T03:03:16;100903.47;;;17.23;94.73
69784;BME280;57054;51.978;4.498;2023-07-30T03:05:42;100905.28;;;17.23;94.70
69784;BME280;57054;51.978;4.498;2023-07-30T03:08:08;100901.75;;;17.22;94.69
69784;BME280;57054;51.978;4.498;2023-07-30T03:10:33;100910.56;;;17.23;94.73
69784;BME280;57054;51.978;4.498;2023-07-30T03:12:58;100906.22;;;17.22;94.79
69784;BME280;57054;51.978;4.498;2023-07-30T03:15:24;100907.06;;;17.22;94.86
69784;BME280;57054;51.978;4.498;2023-07-30T03:17:49;100914.16;;;17.22;94.88
69784;BME280;57054;51.978;4.498;2023-07-30T03:20:14;100913.22;;;17.23;94.93
69784;BME280;57054;51.978;4.498;2023-07-30T03:22:40;100913.31;;;17.21;94.81
69784;BME280;57054;51.978;4.498;2023-07-30T03:25:05;100912.47;;;17.21;94.93
69784;BME280;57054;51.978;4.498;2023-07-30T03:27:31;100908.88;;;17.22;95.00
69784;BME280;57054;51.978;4.498;2023-07-30T03:29:56;100922.09;;;17.22;95.02
69784;BME280;57054;51.978;4.498;2023-07-30T03:32:22;100911.59;;;17.20;94.96
69784;BME280;57054;51.978;4.498;2023-07-30T03:34:47;100913.31;;;17.21;94.91
69784;BME280;57054;51.978;4.498;2023-07-30T03:37:12;100917.78;;;17.21;94.92
69784;BME280;57054;51.978;4.498;2023-07-30T03:39:38;100908.97;;;17.20;94.99
69784;BME280;57054;51.978;4.498;2023-07-30T03:42:03;100916.91;;;17.20;94.81
69784;BME280;57054;51.978;4.498;2023-07-30T03:44:29;100921.34;;;17.20;94.74
69784;BME280;57054;51.978;4.498;2023-07-30T03:46:54;100918.72;;;17.20;94.78
69784;BME280;57054;51.978;4.498;2023-07-30T03:49:19;100923.25;;;17.18;94.91
69784;BME280;57054;51.978;4.498;2023-07-30T03:51:45;100910.88;;;17.18;94.91
69784;BME280;57054;51.978;4.498;2023-07-30T03:54:10;100924.94;;;17.19;94.67
69784;BME280;57054;51.978;4.498;2023-07-30T03:56:36;100925.91;;;17.18;94.85
69784;BME280;57054;51.978;4.498;2023-07-30T03:59:01;100937.34;;;17.18;94.77
69784;BME280;57054;51.978;4.498;2023-07-30T04:01:26;100929.50;;;17.17;95.01
69784;BME280;57054;51.978;4.498;2023-07-30T04:03:53;100930.38;;;17.17;94.80
69784;BME280;57054;51.978;4.498;2023-07-30T04:06:18;100922.53;;;17.16;94.95
69784;BME280;57054;51.978;4.498;2023-07-30T04:08:43;100930.47;;;17.16;94.92
69784;BME280;57054;51.978;4.498;2023-07-30T04:11:09;100933.09;;;17.16;94.75
69784;BME280;57054;51.978;4.498;2023-07-30T04:13:34;100931.41;;;17.15;94.92
69784;BME280;57054;51.978;4.498;2023-07-30T04:15:59;100932.38;;;17.14;94.64
69784;BME280;57054;51.978;4.498;2023-07-30T04:18:25;100927.16;;;17.12;94.61
69784;BME280;57054;51.978;4.498;2023-07-30T04:20:50;100922.81;;;17.11;94.62
69784;BME280;57054;51.978;4.498;2023-07-30T04:23:16;100936.88;;;17.12;94.49
69784;BME280;57054;51.978;4.498;2023-07-30T04:25:42;100937.84;;;17.11;94.28
69784;BME280;57054;51.978;4.498;2023-07-30T04:28:07;100932.66;;;17.09;94.22
69784;BME280;57054;51.978;4.498;2023-07-30T04:30:33;100934.47;;;17.08;94.01
69784;BME280;57054;51.978;4.498;2023-07-30T04:32:58;100924.81;;;17.07;93.70
69784;BME280;57054;51.978;4.498;2023-07-30T04:35:23;100939.00;;;17.06;93.58
69784;BME280;57054;51.978;4.498;2023-07-30T04:37:49;100939.09;;;17.05;93.42
69784;BME280;57054;51.978;4.498;2023-07-30T04:40:14;100934.75;;;17.04;93.25
69784;BME280;57054;51.978;4.498;2023-07-30T04:42:40;100931.38;;;17.02;93.11
69784;BME280;57054;51.978;4.498;2023-07-30T04:45:05;100938.47;;;17.01;92.79
69784;BME280;57054;51.978;4.498;2023-07-30T04:47:31;100939.41;;;17.00;92.62
69784;BME280;57054;51.978;4.498;2023-07-30T04:49:56;100936.84;;;16.99;92.54
69784;BME280;57054;51.978;4.498;2023-07-30T04:52:21;100945.75;;;16.98;92.18
69784;BME280;57054;51.978;4.498;2023-07-30T04:54:47;100946.69;;;16.97;91.85
69784;BME280;57054;51.978;4.498;2023-07-30T04:57:12;100948.50;;;16.96;91.84
69784;BME280;57054;51.978;4.498;2023-07-30T04:59:38;100951.25;;;16.95;91.63
69784;BME280;57054;51.978;4.498;2023-07-30T05:02:03;100942.47;;;16.94;91.84
69784;BME280;57054;51.978;4.498;2023-07-30T05:04:29;100941.63;;;16.94;92.11
69784;BME280;57054;51.978;4.498;2023-07-30T05:06:54;100947.84;;;16.93;92.24
69784;BME280;57054;51.978;4.498;2023-07-30T05:09:19;100948.69;;;16.93;92.57
69784;BME280;57054;51.978;4.498;2023-07-30T05:11:45;100949.66;;;16.92;92.88
69784;BME280;57054;51.978;4.498;2023-07-30T05:14:10;100951.44;;;16.92;93.11
69784;BME280;57054;51.978;4.498;2023-07-30T05:16:35;100951.44;;;16.92;93.37
69784;BME280;57054;51.978;4.498;2023-07-30T05:19:02;100951.44;;;16.92;93.46
69784;BME280;57054;51.978;4.498;2023-07-30T05:21:27;100954.06;;;16.92;93.59
69784;BME280;57054;51.978;4.498;2023-07-30T05:23:52;100960.22;;;16.92;93.84
69784;BME280;57054;51.978;4.498;2023-07-30T05:26:18;100959.38;;;16.92;93.84
69784;BME280;57054;51.978;4.498;2023-07-30T05:28:43;100960.22;;;16.92;93.76
69784;BME280;57054;51.978;4.498;2023-07-30T05:31:09;100960.22;;;16.92;93.99
69784;BME280;57054;51.978;4.498;2023-07-30T05:33:34;100960.13;;;16.94;94.21
69784;BME280;57054;51.978;4.498;2023-07-30T05:35:59;100955.78;;;16.93;94.24
69784;BME280;57054;51.978;4.498;2023-07-30T05:38:25;100956.63;;;16.93;94.37
69784;BME280;57054;51.978;4.498;2023-07-30T05:40:50;100958.34;;;16.94;94.40
69784;BME280;57054;51.978;4.498;2023-07-30T05:43:16;100950.41;;;16.94;94.44
69784;BME280;57054;51.978;4.498;2023-07-30T05:45:41;100957.38;;;16.95;94.63
69784;BME280;57054;51.978;4.498;2023-07-30T05:48:06;100955.69;;;16.94;94.60
69784;BME280;57054;51.978;4.498;2023-07-30T05:50:32;100952.19;;;16.94;94.77
69784;BME280;57054;51.978;4.498;2023-07-30T05:52:57;100949.44;;;16.95;94.80
69784;BME280;57054;51.978;4.498;2023-07-30T05:55:22;100949.44;;;16.95;94.82
69784;BME280;57054;51.978;4.498;2023-07-30T05:57:48;100955.59;;;16.96;95.02
69784;BME280;57054;51.978;4.498;2023-07-30T06:00:13;100951.16;;;16.96;94.78
69784;BME280;57054;51.978;4.498;2023-07-30T06:02:39;100946.69;;;16.97;94.93
69784;BME280;57054;51.978;4.498;2023-07-30T06:05:04;100942.28;;;16.97;94.92
69784;BME280;57054;51.978;4.498;2023-07-30T06:07:30;100952.84;;;16.97;95.12
69784;BME280;57054;51.978;4.498;2023-07-30T06:09:55;100945.75;;;16.98;95.21
69784;BME280;57054;51.978;4.498;2023-07-30T06:12:21;100941.31;;;16.98;94.93
69784;BME280;57054;51.978;4.498;2023-07-30T06:14:46;100943.84;;;17.00;94.68
69784;BME280;57054;51.978;4.498;2023-07-30T06:17:11;100944.78;;;16.99;94.82
69784;BME280;57054;51.978;4.498;2023-07-30T06:19:37;100941.31;;;16.98;94.73
69784;BME280;57054;51.978;4.498;2023-07-30T06:22:03;100942.13;;;16.99;94.47
69784;BME280;57054;51.978;4.498;2023-07-30T06:24:28;100956.34;;;16.98;94.48
69784;BME280;57054;51.978;4.498;2023-07-30T06:26:54;100959.81;;;16.98;94.20
69784;BME280;57054;51.978;4.498;2023-07-30T06:29:19;100949.25;;;16.98;94.15
69784;BME280;57054;51.978;4.498;2023-07-30T06:31:44;100948.41;;;16.98;94.13
69784;BME280;57054;51.978;4.498;2023-07-30T06:34:10;100958.00;;;16.99;94.19
69784;BME280;57054;51.978;4.498;2023-07-30T06:36:35;100956.25;;;16.99;94.31
69784;BME280;57054;51.978;4.498;2023-07-30T06:39:01;100953.59;;;16.99;94.33
69784;BME280;57054;51.978;4.498;2023-07-30T06:41:26;100965.84;;;17.00;94.25
69784;BME280;57054;51.978;4.498;2023-07-30T06:43:51;100959.63;;;17.01;94.01
69784;BME280;57054;51.978;4.498;2023-07-30T06:46:17;100970.22;;;17.01;94.31
69784;BME280;57054;51.978;4.498;2023-07-30T06:48:42;100970.13;;;17.03;94.03
69784;BME280;57054;51.978;4.498;2023-07-30T06:51:09;100960.38;;;17.03;94.13
69784;BME280;57054;51.978;4.498;2023-07-30T06:53:35;100969.16;;;17.04;93.90
69784;BME280;57054;51.978;4.498;2023-07-30T06:56:00;100971.69;;;17.05;94.18
69784;BME280;57054;51.978;4.498;2023-07-30T06:58:26;100974.34;;;17.05;94.11
69784;BME280;57054;51.978;4.498;2023-07-30T07:00:51;100967.34;;;17.04;94.05
69784;BME280;57054;51.978;4.498;2023-07-30T07:03:17;100960.38;;;17.03;94.21
69784;BME280;57054;51.978;4.498;2023-07-30T07:05:42;100965.66;;;17.03;94.23
69784;BME280;57054;51.978;4.498;2023-07-30T07:08:07;100968.31;;;17.03;94.30
69784;BME280;57054;51.978;4.498;2023-07-30T07:10:33;100963.84;;;17.04;94.12
69784;BME280;57054;51.978;4.498;2023-07-30T07:12:58;100966.59;;;17.02;94.30
69784;BME280;57054;51.978;4.498;2023-07-30T07:15:23;100961.31;;;17.02;94.10
69784;BME280;57054;51.978;4.498;2023-07-30T07:17:49;100965.66;;;17.03;94.14
69784;BME280;57054;51.978;4.498;2023-07-30T07:20:14;100973.59;;;17.03;94.38
69784;BME280;57054;51.978;4.498;2023-07-30T07:22:40;100978.91;;;17.03;94.66
69784;BME280;57054;51.978;4.498;2023-07-30T07:25:05;100987.66;;;17.04;94.88
69784;BME280;57054;51.978;4.498;2023-07-30T07:27:31;100976.25;;;17.03;94.90
69784;BME280;57054;51.978;4.498;2023-07-30T07:29:56;100981.53;;;17.03;95.05
69784;BME280;57054;51.978;4.498;2023-07-30T07:32:21;100995.59;;;17.04;94.81
69784;BME280;57054;51.978;4.498;2023-07-30T07:34:48;101006.19;;;17.04;94.61
69784;BME280;57054;51.978;4.498;2023-07-30T07:37:14;101002.69;;;17.03;94.62
69784;BME280;57054;51.978;4.498;2023-07-30T07:39:41;100998.25;;;17.04;94.52
69784;BME280;57054;51.978;4.498;2023-07-30T07:42:07;101002.59;;;17.05;94.68
69784;BME280;57054;51.978;4.498;2023-07-30T07:44:32;101007.91;;;17.05;94.45
69784;BME280;57054;51.978;4.498;2023-07-30T07:46:57;101009.59;;;17.06;94.04
69784;BME280;57054;51.978;4.498;2023-07-30T07:49:23;101011.28;;;17.07;93.21
69784;BME280;57054;51.978;4.498;2023-07-30T07:51:48;101012.03;;;17.09;93.03
69784;BME280;57054;51.978;4.498;2023-07-30T07:54:13;101011.19;;;17.08;92.32
69784;BME280;57054;51.978;4.498;2023-07-30T07:56:39;101007.59;;;17.10;91.92
69784;BME280;57054;51.978;4.498;2023-07-30T07:59:04;101023.47;;;17.10;91.58
69784;BME280;57054;51.978;4.498;2023-07-30T08:01:30;101022.53;;;17.11;91.45
69784;BME280;57054;51.978;4.498;2023-07-30T08:03:55;101024.19;;;17.12;91.16
69784;BME280;57054;51.978;4.498;2023-07-30T08:06:20;101029.50;;;17.12;90.86
69784;BME280;57054;51.978;4.498;2023-07-30T08:08:46;101031.31;;;17.11;89.99
69784;BME280;57054;51.978;4.498;2023-07-30T08:11:11;101025.16;;;17.11;89.71
69784;BME280;57054;51.978;4.498;2023-07-30T08:13:36;101026.09;;;17.10;88.62
69784;BME280;57054;51.978;4.498;2023-07-30T08:16:02;101025.28;;;17.09;89.01
69784;BME280;57054;51.978;4.498;2023-07-30T08:18:28;101029.63;;;17.10;88.96
69784;BME280;57054;51.978;4.498;2023-07-30T08:20:53;101029.72;;;17.08;88.74
69784;BME280;57054;51.978;4.498;2023-07-30T08:23:19;101024.53;;;17.07;88.46
69784;BME280;57054;51.978;4.498;2023-07-30T08:25:44;101027.16;;;17.07;88.46
69784;BME280;57054;51.978;4.498;2023-07-30T08:28:10;101027.16;;;17.07;88.24
69784;BME280;57054;51.978;4.498;2023-07-30T08:30:35;101027.25;;;17.05;88.14
69784;BME280;57054;51.978;4.498;2023-07-30T08:33:00;101033.41;;;17.06;87.91
69784;BME280;57054;51.978;4.498;2023-07-30T08:35:26;101032.66;;;17.04;88.01
69784;BME280;57054;51.978;4.498;2023-07-30T08:37:52;101023.03;;;17.03;87.93
69784;BME280;57054;51.978;4.498;2023-07-30T08:40:17;101023.88;;;17.03;87.74
69784;BME280;57054;51.978;4.498;2023-07-30T08:42:43;101026.50;;;17.03;87.91
69784;BME280;57054;51.978;4.498;2023-07-30T08:45:08;101022.16;;;17.02;87.79
69784;BME280;57054;51.978;4.498;2023-07-30T08:47:39;101028.41;;;17.01;87.70
69784;BME280;57054;51.978;4.498;2023-07-30T08:50:05;101026.59;;;17.02;87.95
69784;BME280;57054;51.978;4.498;2023-07-30T08:52:32;101035.38;;;17.02;88.14
69784;BME280;57054;51.978;4.498;2023-07-30T08:54:58;101032.75;;;17.02;88.26
69784;BME280;57054;51.978;4.498;2023-07-30T08:57:26;101032.75;;;17.02;88.40
69784;BME280;57054;51.978;4.498;2023-07-30T09:00:03;101036.25;;;17.03;88.51
69784;BME280;57054;51.978;4.498;2023-07-30T09:02:34;101043.13;;;17.05;88.82
69784;BME280;57054;51.978;4.498;2023-07-30T09:05:03;101040.41;;;17.07;88.75
69784;BME280;57054;51.978;4.498;2023-07-30T09:07:29;101041.97;;;17.10;88.57
69784;BME280;57054;51.978;4.498;2023-07-30T09:09:54;101040.06;;;17.12;88.76
69784;BME280;57054;51.978;4.498;2023-07-30T09:12:25;101047.72;;;17.16;88.60
69784;BME280;57054;51.978;4.498;2023-07-30T09:14:51;101040.53;;;17.18;88.06
69784;BME280;57054;51.978;4.498;2023-07-30T09:17:18;101047.44;;;17.21;87.87
69784;BME280;57054;51.978;4.498;2023-07-30T09:19:43;101056.88;;;17.25;87.86
69784;BME280;57054;51.978;4.498;2023-07-30T09:22:09;101053.91;;;17.30;87.69
69784;BME280;57054;51.978;4.498;2023-07-30T09:24:34;101054.56;;;17.33;87.56
69784;BME280;57054;51.978;4.498;2023-07-30T09:27:03;101057.03;;;17.36;87.09
69784;BME280;57054;51.978;4.498;2023-07-30T09:29:28;101061.16;;;17.40;86.53
69784;BME280;57054;51.978;4.498;2023-07-30T09:31:54;101069.84;;;17.42;86.25
69784;BME280;57054;51.978;4.498;2023-07-30T09:34:23;101052.09;;;17.44;85.83
69784;BME280;57054;51.978;4.498;2023-07-30T09:36:55;101065.19;;;17.46;85.76
69784;BME280;57054;51.978;4.498;2023-07-30T09:39:22;101077.50;;;17.47;85.41
69784;BME280;57054;51.978;4.498;2023-07-30T09:41:49;101084.59;;;17.46;85.71
69784;BME280;57054;51.978;4.498;2023-07-30T09:44:17;101085.44;;;17.47;85.33
69784;BME280;57054;51.978;4.498;2023-07-30T09:46:44;101082.69;;;17.49;85.47
69784;BME280;57054;51.978;4.498;2023-07-30T09:49:10;101093.19;;;17.50;85.56
69784;BME280;57054;51.978;4.498;2023-07-30T09:51:37;101084.19;;;17.53;85.72
69784;BME280;57054;51.978;4.498;2023-07-30T09:54:03;101083.13;;;17.55;85.95
69784;BME280;57054;51.978;4.498;2023-07-30T09:56:28;101090.97;;;17.57;85.58
69784;BME280;57054;51.978;4.498;2023-07-30T09:58:54;101097.00;;;17.59;85.41
69784;BME280;57054;51.978;4.498;2023-07-30T10:01:22;101099.56;;;17.60;85.15
69784;BME280;57054;51.978;4.498;2023-07-30T10:03:50;101102.94;;;17.62;84.91
69784;BME280;57054;51.978;4.498;2023-07-30T10:06:16;101098.53;;;17.63;85.01
69784;BME280;57054;51.978;4.498;2023-07-30T10:08:43;101099.25;;;17.65;84.96
69784;BME280;57054;51.978;4.498;2023-07-30T10:11:09;101106.16;;;17.68;84.57
69784;BME280;57054;51.978;4.498;2023-07-30T10:13:36;101111.34;;;17.69;84.50
69784;BME280;57054;51.978;4.498;2023-07-30T10:16:02;101105.84;;;17.72;84.19
69784;BME280;57054;51.978;4.498;2023-07-30T10:18:41;101102.13;;;17.75;83.84
69784;BME280;57054;51.978;4.498;2023-07-30T10:21:22;101103.75;;;17.77;83.66
69784;BME280;57054;51.978;4.498;2023-07-30T10:24:02;101108.19;;;17.77;83.35
69784;BME280;57054;51.978;4.498;2023-07-30T10:26:30;101118.78;;;17.77;83.22
69784;BME280;57054;51.978;4.498;2023-07-30T10:29:15;101125.88;;;17.76;82.43
69784;BME280;57054;51.978;4.498;2023-07-30T10:31:42;101127.69;;;17.76;82.70
69784;BME280;57054;51.978;4.498;2023-07-30T10:34:09;101124.94;;;17.77;83.01
69784;BME280;57054;51.978;4.498;2023-07-30T10:36:43;101124.94;;;17.77;83.17
69784;BME280;57054;51.978;4.498;2023-07-30T10:41:46;101130.09;;;17.79;83.40
69784;BME280;57054;51.978;4.498;2023-07-30T10:44:37;101134.38;;;17.81;83.33
69784;BME280;57054;51.978;4.498;2023-07-30T10:47:08;101141.47;;;17.81;83.26
69784;BME280;57054;51.978;4.498;2023-07-30T10:49:38;101140.50;;;17.82;82.66
69784;BME280;57054;51.978;4.498;2023-07-30T10:52:04;101145.81;;;17.82;82.59
69784;BME280;57054;51.978;4.498;2023-07-30T10:54:36;101137.69;;;17.85;82.71
69784;BME280;57054;51.978;4.498;2023-07-30T10:57:05;101135.78;;;17.87;82.23
69784;BME280;57054;51.978;4.498;2023-07-30T10:59:37;101145.22;;;17.91;82.27
69784;BME280;57054;51.978;4.498;2023-07-30T11:02:03;101129.22;;;17.93;82.15
69784;BME280;57054;51.978;4.498;2023-07-30T11:04:29;101143.03;;;17.98;82.48
69784;BME280;57054;51.978;4.498;2023-07-30T11:06:58;101141.97;;;18.00;82.88
69784;BME280;57054;51.978;4.498;2023-07-30T11:09:25;101155.84;;;18.04;82.61
69784;BME280;57054;51.978;4.498;2023-07-30T11:11:52;101143.34;;;18.06;82.29
69784;BME280;57054;51.978;4.498;2023-07-30T11:14:20;101149.53;;;18.07;81.74
69784;BME280;57054;51.978;4.498;2023-07-30T11:16:57;101159.16;;;18.08;81.47
69784;BME280;57054;51.978;4.498;2023-07-30T11:19:26;101161.81;;;18.08;81.52
69784;BME280;57054;51.978;4.498;2023-07-30T11:21:55;101172.41;;;18.08;81.68
69784;BME280;57054;51.978;4.498;2023-07-30T11:24:21;101151.19;;;18.08;81.64
69784;BME280;57054;51.978;4.498;2023-07-30T11:26:59;101159.06;;;18.09;81.97
69784;BME280;57054;51.978;4.498;2023-07-30T11:29:25;101177.50;;;18.11;81.91
69784;BME280;57054;51.978;4.498;2023-07-30T11:31:51;101180.91;;;18.13;81.72
69784;BME280;57054;51.978;4.498;2023-07-30T11:34:16;101168.59;;;18.12;81.47
69784;BME280;57054;51.978;4.498;2023-07-30T11:36:43;101157.97;;;18.12;81.34
69784;BME280;57054;51.978;4.498;2023-07-30T11:39:09;101161.41;;;18.14;81.75
69784;BME280;57054;51.978;4.498;2023-07-30T11:41:35;101170.09;;;18.16;81.91
69784;BME280;57054;51.978;4.498;2023-07-30T11:44:02;101186.84;;;18.16;81.35
69784;BME280;57054;51.978;4.498;2023-07-30T11:46:28;101184.19;;;18.16;80.82
69784;BME280;57054;51.978;4.498;2023-07-30T11:49:11;101183.25;;;18.17;80.79
69784;BME280;57054;51.978;4.498;2023-07-30T11:51:37;101190.34;;;18.17;80.97
69784;BME280;57054;51.978;4.498;2023-07-30T11:54:03;101179.63;;;18.18;80.75
69784;BME280;57054;51.978;4.498;2023-07-30T11:56:32;101175.16;;;18.19;80.80
69784;BME280;57054;51.978;4.498;2023-07-30T11:59:07;101175.16;;;18.19;80.94
69784;BME280;57054;51.978;4.498;2023-07-30T12:01:35;101192.78;;;18.20;81.13
69784;BME280;57054;51.978;4.498;2023-07-30T12:04:03;101169.78;;;18.20;80.33
69784;BME280;57054;51.978;4.498;2023-07-30T12:09:14;101180.28;;;18.22;80.08
69784;BME280;57054;51.978;4.498;2023-07-30T12:14:12;101164.91;;;18.27;79.96
69784;BME280;57054;51.978;4.498;2023-07-30T12:16:37;101170.97;;;18.29;79.87
69784;BME280;57054;51.978;4.498;2023-07-30T12:19:03;101178.91;;;18.29;79.60
69784;BME280;57054;51.978;4.498;2023-07-30T12:21:29;101170.84;;;18.31;79.76
69784;BME280;57054;51.978;4.498;2023-07-30T12:23:54;101177.84;;;18.32;79.80
69784;BME280;57054;51.978;4.498;2023-07-30T12:26:19;101194.53;;;18.34;78.58
69784;BME280;57054;51.978;4.498;2023-07-30T12:28:45;101180.28;;;18.35;78.05
69784;BME280;57054;51.978;4.498;2023-07-30T12:31:10;101180.19;;;18.36;77.95
69784;BME280;57054;51.978;4.498;2023-07-30T12:33:36;101196.75;;;18.40;78.44
69784;BME280;57054;51.978;4.498;2023-07-30T12:36:01;101194.00;;;18.41;78.16
69784;BME280;57054;51.978;4.498;2023-07-30T12:38:27;101187.72;;;18.42;77.43
69784;BME280;57054;51.978;4.498;2023-07-30T12:40:52;101191.13;;;18.45;77.46
69784;BME280;57054;51.978;4.498;2023-07-30T12:43:17;101202.69;;;18.44;77.35
69784;BME280;57054;51.978;4.498;2023-07-30T12:45:46;101210.53;;;18.45;76.99
69784;BME280;57054;51.978;4.498;2023-07-30T12:48:12;101191.97;;;18.45;76.69
69784;BME280;57054;51.978;4.498;2023-07-30T12:50:37;101200.78;;;18.46;76.68
69784;BME280;57054;51.978;4.498;2023-07-30T12:53:02;101190.16;;;18.46;76.72
69784;BME280;57054;51.978;4.498;2023-07-30T12:55:28;101191.00;;;18.46;76.58
69784;BME280;57054;51.978;4.498;2023-07-30T12:57:53;101181.28;;;18.47;76.84
69784;BME280;57054;51.978;4.498;2023-07-30T13:00:18;101190.91;;;18.48;77.34